sensor_id;sensor_type;location;lat;lon;timestamp;pressure;altitude;pressure_sealevel;temperature;humidity
11099;BME280;12223;42.650;23.364;2023-05-22T00:02:22;94476.25;;;14.04;100.00
11099;BME280;12223;42.650;23.364;2023-05-22T00:04:49;94476.59;;;14.07;100.00
11099;BME280;12223;42.650;23.364;2023-05-22T00:07:17;94472.41;;;14.17;100.00
11099;BME280;12223;42.650;23.364;2023-05-22T00:09:44;94471.94;;;14.20;100.00
11099;BME280;12223;42.650;23.364;2023-05-22T00:12:10;94478.06;;;14.20;100.00
11099;BME280;12223;42.650;23.364;2023-05-22T00:14:37;94468.00;;;14.22;100.00
11099;BME280;12223;42.650;23.364;2023-05-22T00:17:04;94463.97;;;14.20;100.00
11099;BME280;12223;42.650;23.364;2023-05-22T00:19:31;94470.66;;;14.22;100.00
11099;BME280;12223;42.650;23.364;2023-05-22T00:21:58;94464.44;;;14.17;100.00
11099;BME280;12223;42.650;23.364;2023-05-22T00:24:26;94466.88;;;14.18;100.00
11099;BME280;12223;42.650;23.364;2023-05-22T00:26:53;94467.63;;;14.14;100.00
11099;BME280;12223;42.650;23.364;2023-05-22T00:29:19;94465.41;;;14.05;100.00
11099;BME280;12223;42.650;23.364;2023-05-22T00:31:46;94465.34;;;14.00;100.00
11099;BME280;12223;42.650;23.364;2023-05-22T00:34:13;94467.69;;;13.97;100.00
11099;BME280;12223;42.650;23.364;2023-05-22T00:36:40;94456.75;;;13.93;100.00
11099;BME280;12223;42.650;23.364;2023-05-22T00:39:07;94466.16;;;14.01;100.00
11099;BME280;12223;42.650;23.364;2023-05-22T00:41:36;94460.03;;;14.00;100.00
11099;BME280;12223;42.650;23.364;2023-05-22T00:44:03;94461.66;;;14.01;100.00
11099;BME280;12223;42.650;23.364;2023-05-22T00:46:31;94465.63;;;14.04;100.00
11099;BME280;12223;42.650;23.364;2023-05-22T00:48:58;94457.38;;;14.00;100.00
11099;BME280;12223;42.650;23.364;2023-05-22T00:51:25;94460.75;;;13.74;100.00
11099;BME280;12223;42.650;23.364;2023-05-22T00:53:52;94442.81;;;13.81;100.00
11099;BME280;12223;42.650;23.364;2023-05-22T00:56:19;94450.16;;;13.96;100.00
11099;BME280;12223;42.650;23.364;2023-05-22T00:58:48;94451.03;;;14.01;100.00
11099;BME280;12223;42.650;23.364;2023-05-22T01:01:15;94457.13;;;14.02;100.00
11099;BME280;12223;42.650;23.364;2023-05-22T01:03:42;94449.41;;;14.00;100.00
11099;BME280;12223;42.650;23.364;2023-05-22T01:06:10;94453.13;;;13.99;100.00
11099;BME280;12223;42.650;23.364;2023-05-22T01:08:37;94446.69;;;13.95;100.00
11099;BME280;12223;42.650;23.364;2023-05-22T01:11:08;94449.88;;;13.97;100.00
11099;BME280;12223;42.650;23.364;2023-05-22T01:13:43;94452.63;;;14.02;100.00
11099;BME280;12223;42.650;23.364;2023-05-22T01:16:19;94448.94;;;14.03;100.00
11099;BME280;12223;42.650;23.364;2023-05-22T01:18:56;94451.31;;;14.05;100.00
11099;BME280;12223;42.650;23.364;2023-05-22T01:21:32;94445.53;;;14.08;100.00
11099;BME280;12223;42.650;23.364;2023-05-22T01:24:40;94450.28;;;14.06;100.00
11099;BME280;12223;42.650;23.364;2023-05-22T01:27:23;94457.84;;;13.97;100.00
11099;BME280;12223;42.650;23.364;2023-05-22T01:30:05;94445.53;;;13.86;100.00
11099;BME280;12223;42.650;23.364;2023-05-22T01:32:36;94432.31;;;13.69;100.00
11099;BME280;12223;42.650;23.364;2023-05-22T01:35:09;94429.28;;;13.61;100.00
11099;BME280;12223;42.650;23.364;2023-05-22T01:37:37;94427.56;;;13.50;100.00
11099;BME280;12223;42.650;23.364;2023-05-22T01:40:05;94411.00;;;13.43;100.00
11099;BME280;12223;42.650;23.364;2023-05-22T01:42:33;94409.16;;;13.43;100.00
11099;BME280;12223;42.650;23.364;2023-05-22T01:45:00;94399.06;;;13.40;100.00
11099;BME280;12223;42.650;23.364;2023-05-22T01:47:27;94400.34;;;13.38;100.00
11099;BME280;12223;42.650;23.364;2023-05-22T01:49:55;94395.28;;;13.36;100.00
11099;BME280;12223;42.650;23.364;2023-05-22T01:52:31;94394.97;;;13.33;100.00
11099;BME280;12223;42.650;23.364;2023-05-22T01:55:04;94390.72;;;13.32;100.00
11099;BME280;12223;42.650;23.364;2023-05-22T01:57:37;94390.56;;;13.21;100.00
11099;BME280;12223;42.650;23.364;2023-05-22T02:00:08;94382.88;;;13.20;100.00
11099;BME280;12223;42.650;23.364;2023-05-22T02:02:37;94381.50;;;13.17;100.00
11099;BME280;12223;42.650;23.364;2023-05-22T02:05:09;94388.66;;;13.17;100.00
11099;BME280;12223;42.650;23.364;2023-05-22T02:07:38;94376.56;;;13.09;100.00
11099;BME280;12223;42.650;23.364;2023-05-22T02:10:08;94379.09;;;13.16;100.00
11099;BME280;12223;42.650;23.364;2023-05-22T02:12:35;94390.19;;;13.13;100.00
11099;BME280;12223;42.650;23.364;2023-05-22T02:15:04;94385.31;;;13.10;100.00
11099;BME280;12223;42.650;23.364;2023-05-22T02:17:35;94387.91;;;13.05;100.00
11099;BME280;12223;42.650;23.364;2023-05-22T02:20:09;94391.88;;;13.02;100.00
11099;BME280;12223;42.650;23.364;2023-05-22T02:22:40;94380.13;;;12.98;100.00
11099;BME280;12223;42.650;23.364;2023-05-22T02:25:08;94383.75;;;12.92;100.00
11099;BME280;12223;42.650;23.364;2023-05-22T02:27:39;94387.53;;;12.79;100.00
11099;BME280;12223;42.650;23.364;2023-05-22T02:30:07;94395.34;;;12.69;100.00
11099;BME280;12223;42.650;23.364;2023-05-22T02:32:34;94378.72;;;12.57;100.00
11099;BME280;12223;42.650;23.364;2023-05-22T02:35:01;94377.03;;;12.51;100.00
11099;BME280;12223;42.650;23.364;2023-05-22T02:37:30;94375.25;;;12.40;100.00
11099;BME280;12223;42.650;23.364;2023-05-22T02:39:56;94366.03;;;12.26;100.00
11099;BME280;12223;42.650;23.364;2023-05-22T02:42:24;94355.34;;;12.21;100.00
11099;BME280;12223;42.650;23.364;2023-05-22T02:44:50;94354.72;;;12.30;100.00
11099;BME280;12223;42.650;23.364;2023-05-22T02:47:17;94353.84;;;12.25;100.00
11099;BME280;12223;42.650;23.364;2023-05-22T02:49:44;94357.38;;;12.30;100.00
11099;BME280;12223;42.650;23.364;2023-05-22T02:52:11;94344.50;;;12.22;100.00
11099;BME280;12223;42.650;23.364;2023-05-22T02:54:40;94348.84;;;12.28;100.00
11099;BME280;12223;42.650;23.364;2023-05-22T02:57:07;94323.97;;;12.13;100.00
11099;BME280;12223;42.650;23.364;2023-05-22T02:59:34;94350.53;;;12.18;100.00
11099;BME280;12223;42.650;23.364;2023-05-22T03:02:02;94343.41;;;12.35;100.00
11099;BME280;12223;42.650;23.364;2023-05-22T03:04:28;94354.88;;;12.40;100.00
11099;BME280;12223;42.650;23.364;2023-05-22T03:06:55;94359.69;;;12.43;100.00
11099;BME280;12223;42.650;23.364;2023-05-22T03:09:22;94365.31;;;12.47;100.00
11099;BME280;12223;42.650;23.364;2023-05-22T03:11:50;94363.00;;;12.51;100.00
11099;BME280;12223;42.650;23.364;2023-05-22T03:14:17;94377.13;;;12.56;100.00
11099;BME280;12223;42.650;23.364;2023-05-22T03:16:44;94396.78;;;12.60;100.00
11099;BME280;12223;42.650;23.364;2023-05-22T03:19:12;94398.16;;;12.63;100.00
11099;BME280;12223;42.650;23.364;2023-05-22T03:21:39;94405.06;;;12.64;100.00
11099;BME280;12223;42.650;23.364;2023-05-22T03:24:08;94419.13;;;12.64;100.00
11099;BME280;12223;42.650;23.364;2023-05-22T03:26:35;94404.91;;;12.70;100.00
11099;BME280;12223;42.650;23.364;2023-05-22T03:29:03;94399.97;;;12.79;100.00
11099;BME280;12223;42.650;23.364;2023-05-22T03:31:32;94410.50;;;12.90;100.00
11099;BME280;12223;42.650;23.364;2023-05-22T03:33:59;94408.19;;;12.94;100.00
11099;BME280;12223;42.650;23.364;2023-05-22T03:36:26;94424.78;;;13.06;100.00
11099;BME280;12223;42.650;23.364;2023-05-22T03:38:52;94433.72;;;13.17;100.00
11099;BME280;12223;42.650;23.364;2023-05-22T03:41:19;94448.13;;;13.43;100.00
11099;BME280;12223;42.650;23.364;2023-05-22T03:43:46;94446.34;;;13.65;100.00
11099;BME280;12223;42.650;23.364;2023-05-22T03:46:14;94449.13;;;14.24;100.00
11099;BME280;12223;42.650;23.364;2023-05-22T03:48:41;94459.06;;;14.87;100.00
11099;BME280;12223;42.650;23.364;2023-05-22T03:51:08;94473.50;;;15.65;100.00
11099;BME280;12223;42.650;23.364;2023-05-22T03:53:35;94465.03;;;16.45;100.00
11099;BME280;12223;42.650;23.364;2023-05-22T03:56:01;94474.75;;;17.22;100.00
11099;BME280;12223;42.650;23.364;2023-05-22T03:58:28;94474.44;;;17.80;100.00
11099;BME280;12223;42.650;23.364;2023-05-22T04:00:55;94482.94;;;18.66;100.00
11099;BME280;12223;42.650;23.364;2023-05-22T04:03:24;94477.09;;;19.95;89.27
11099;BME280;12223;42.650;23.364;2023-05-22T04:05:51;94480.84;;;21.03;78.58
11099;BME280;12223;42.650;23.364;2023-05-22T04:08:18;94476.41;;;21.95;69.90
11099;BME280;12223;42.650;23.364;2023-05-22T04:10:45;94478.88;;;22.60;62.62
11099;BME280;12223;42.650;23.364;2023-05-22T04:13:13;94486.84;;;22.52;57.96
11099;BME280;12223;42.650;23.364;2023-05-22T04:15:41;94482.59;;;22.23;60.94
11099;BME280;12223;42.650;23.364;2023-05-22T04:18:09;94482.44;;;22.83;59.25
11099;BME280;12223;42.650;23.364;2023-05-22T04:20:37;94484.19;;;23.82;56.17
11099;BME280;12223;42.650;23.364;2023-05-22T04:23:04;94497.63;;;24.83;51.46
11099;BME280;12223;42.650;23.364;2023-05-22T04:25:31;94493.72;;;25.58;47.75
11099;BME280;12223;42.650;23.364;2023-05-22T04:27:58;94497.22;;;25.58;47.15
11099;BME280;12223;42.650;23.364;2023-05-22T04:30:27;94490.78;;;26.53;44.49
11099;BME280;12223;42.650;23.364;2023-05-22T04:32:54;94500.00;;;26.90;42.69
11099;BME280;12223;42.650;23.364;2023-05-22T04:35:21;94492.81;;;27.14;41.68
11099;BME280;12223;42.650;23.364;2023-05-22T04:37:50;94493.16;;;28.20;40.43
11099;BME280;12223;42.650;23.364;2023-05-22T04:40:17;94503.94;;;29.38;37.50
11099;BME280;12223;42.650;23.364;2023-05-22T04:42:43;94505.97;;;30.25;35.53
11099;BME280;12223;42.650;23.364;2023-05-22T04:45:10;94466.13;;;30.99;33.98
11099;BME280;12223;42.650;23.364;2023-05-22T04:47:39;94502.31;;;31.31;33.55
11099;BME280;12223;42.650;23.364;2023-05-22T04:50:07;94502.38;;;31.69;33.11
11099;BME280;12223;42.650;23.364;2023-05-22T04:52:34;94503.34;;;32.61;32.05
11099;BME280;12223;42.650;23.364;2023-05-22T04:55:03;94510.56;;;33.48;30.62
11099;BME280;12223;42.650;23.364;2023-05-22T04:57:31;94508.06;;;34.29;28.85
11099;BME280;12223;42.650;23.364;2023-05-22T04:59:58;94501.09;;;34.79;27.86
11099;BME280;12223;42.650;23.364;2023-05-22T05:02:25;94500.28;;;35.23;27.50
11099;BME280;12223;42.650;23.364;2023-05-22T05:04:53;94506.94;;;35.94;27.05
11099;BME280;12223;42.650;23.364;2023-05-22T05:07:20;94494.53;;;36.43;26.45
11099;BME280;12223;42.650;23.364;2023-05-22T05:09:48;94509.53;;;37.09;25.43
11099;BME280;12223;42.650;23.364;2023-05-22T05:12:16;94505.97;;;37.48;24.71
11099;BME280;12223;42.650;23.364;2023-05-22T05:14:43;94497.69;;;37.44;24.03
11099;BME280;12223;42.650;23.364;2023-05-22T05:17:10;94513.34;;;37.93;22.98
11099;BME280;12223;42.650;23.364;2023-05-22T05:19:38;94516.06;;;37.97;22.62
11099;BME280;12223;42.650;23.364;2023-05-22T05:22:04;94510.09;;;38.16;22.72
11099;BME280;12223;42.650;23.364;2023-05-22T05:24:31;94506.38;;;37.42;22.82
11099;BME280;12223;42.650;23.364;2023-05-22T05:26:58;94508.34;;;37.06;23.06
11099;BME280;12223;42.650;23.364;2023-05-22T05:29:26;94498.47;;;36.35;23.32
11099;BME280;12223;42.650;23.364;2023-05-22T05:31:53;94504.13;;;35.15;24.79
11099;BME280;12223;42.650;23.364;2023-05-22T05:34:20;94510.63;;;34.15;26.07
11099;BME280;12223;42.650;23.364;2023-05-22T05:36:47;94510.00;;;33.35;26.71
11099;BME280;12223;42.650;23.364;2023-05-22T05:39:14;94508.88;;;32.42;27.03
11099;BME280;12223;42.650;23.364;2023-05-22T05:41:40;94507.00;;;31.65;28.19
11099;BME280;12223;42.650;23.364;2023-05-22T05:44:07;94510.34;;;30.73;29.75
11099;BME280;12223;42.650;23.364;2023-05-22T05:46:35;94509.75;;;29.65;30.85
11099;BME280;12223;42.650;23.364;2023-05-22T05:49:06;94510.09;;;29.11;32.30
11099;BME280;12223;42.650;23.364;2023-05-22T05:51:34;94507.66;;;28.24;33.47
11099;BME280;12223;42.650;23.364;2023-05-22T05:54:01;94510.69;;;27.36;35.04
11099;BME280;12223;42.650;23.364;2023-05-22T05:56:28;94514.44;;;27.02;34.86
11099;BME280;12223;42.650;23.364;2023-05-22T05:58:57;94507.09;;;26.73;35.50
11099;BME280;12223;42.650;23.364;2023-05-22T06:01:25;94511.41;;;26.66;35.65
11099;BME280;12223;42.650;23.364;2023-05-22T06:03:53;94514.47;;;26.56;36.40
11099;BME280;12223;42.650;23.364;2023-05-22T06:06:20;94516.03;;;26.19;37.45
11099;BME280;12223;42.650;23.364;2023-05-22T06:08:50;94511.16;;;25.86;37.71
11099;BME280;12223;42.650;23.364;2023-05-22T06:11:17;94511.19;;;25.43;36.83
11099;BME280;12223;42.650;23.364;2023-05-22T06:13:44;94518.81;;;24.50;37.08
11099;BME280;12223;42.650;23.364;2023-05-22T06:16:11;94511.78;;;23.56;39.01
11099;BME280;12223;42.650;23.364;2023-05-22T06:18:37;94500.00;;;22.94;40.48
11099;BME280;12223;42.650;23.364;2023-05-22T06:21:06;94513.50;;;23.16;40.59
11099;BME280;12223;42.650;23.364;2023-05-22T06:23:33;94516.97;;;22.67;40.65
11099;BME280;12223;42.650;23.364;2023-05-22T06:26:00;94511.56;;;21.99;42.21
11099;BME280;12223;42.650;23.364;2023-05-22T06:28:26;94519.94;;;21.97;43.12
11099;BME280;12223;42.650;23.364;2023-05-22T06:30:53;94519.34;;;21.68;44.96
11099;BME280;12223;42.650;23.364;2023-05-22T06:33:21;94514.28;;;21.80;45.57
11099;BME280;12223;42.650;23.364;2023-05-22T06:35:48;94518.53;;;21.67;44.26
11099;BME280;12223;42.650;23.364;2023-05-22T06:38:16;94515.94;;;21.44;45.44
11099;BME280;12223;42.650;23.364;2023-05-22T06:40:43;94518.91;;;21.29;45.32
11099;BME280;12223;42.650;23.364;2023-05-22T06:43:10;94516.84;;;21.39;44.52
11099;BME280;12223;42.650;23.364;2023-05-22T06:45:37;94517.31;;;21.60;44.10
11099;BME280;12223;42.650;23.364;2023-05-22T06:48:04;94510.84;;;21.93;44.53
11099;BME280;12223;42.650;23.364;2023-05-22T06:50:31;94485.25;;;21.63;43.89
11099;BME280;12223;42.650;23.364;2023-05-22T06:52:58;94518.50;;;21.54;45.45
11099;BME280;12223;42.650;23.364;2023-05-22T06:55:26;94507.84;;;21.49;45.36
11099;BME280;12223;42.650;23.364;2023-05-22T06:57:52;94517.78;;;21.94;45.38
11099;BME280;12223;42.650;23.364;2023-05-22T07:00:19;94513.41;;;21.52;44.71
11099;BME280;12223;42.650;23.364;2023-05-22T07:02:46;94508.53;;;21.54;45.42
11099;BME280;12223;42.650;23.364;2023-05-22T07:05:13;94511.84;;;21.65;47.52
11099;BME280;12223;42.650;23.364;2023-05-22T07:07:40;94518.34;;;21.45;47.17
11099;BME280;12223;42.650;23.364;2023-05-22T07:10:07;94515.56;;;21.37;45.77
11099;BME280;12223;42.650;23.364;2023-05-22T07:12:36;94512.78;;;20.85;46.03
11099;BME280;12223;42.650;23.364;2023-05-22T07:15:03;94513.00;;;21.08;46.29
11099;BME280;12223;42.650;23.364;2023-05-22T07:17:30;94504.81;;;21.37;47.89
11099;BME280;12223;42.650;23.364;2023-05-22T07:19:57;94486.50;;;21.39;48.20
11099;BME280;12223;42.650;23.364;2023-05-22T07:22:23;94506.00;;;21.77;47.18
11099;BME280;12223;42.650;23.364;2023-05-22T07:24:50;94502.09;;;22.01;46.92
11099;BME280;12223;42.650;23.364;2023-05-22T07:27:17;94507.41;;;22.48;45.63
11099;BME280;12223;42.650;23.364;2023-05-22T07:29:45;94514.19;;;22.18;45.91
11099;BME280;12223;42.650;23.364;2023-05-22T07:32:13;94506.28;;;21.75;47.89
11099;BME280;12223;42.650;23.364;2023-05-22T07:34:40;94513.00;;;21.26;50.22
11099;BME280;12223;42.650;23.364;2023-05-22T07:37:07;94512.09;;;21.17;52.17
11099;BME280;12223;42.650;23.364;2023-05-22T07:39:34;94499.25;;;21.47;51.05
11099;BME280;12223;42.650;23.364;2023-05-22T07:42:02;94498.59;;;21.87;51.11
11099;BME280;12223;42.650;23.364;2023-05-22T07:44:29;94496.53;;;22.12;50.68
11099;BME280;12223;42.650;23.364;2023-05-22T07:46:57;94506.56;;;21.92;50.29
11099;BME280;12223;42.650;23.364;2023-05-22T07:49:24;94515.84;;;21.16;52.07
11099;BME280;12223;42.650;23.364;2023-05-22T07:51:51;94504.91;;;21.45;53.05
11099;BME280;12223;42.650;23.364;2023-05-22T07:54:18;94494.59;;;21.52;53.27
11099;BME280;12223;42.650;23.364;2023-05-22T07:56:44;94493.03;;;21.65;52.52
11099;BME280;12223;42.650;23.364;2023-05-22T07:59:12;94498.03;;;21.72;52.09
11099;BME280;12223;42.650;23.364;2023-05-22T08:01:39;94499.22;;;21.98;51.36
11099;BME280;12223;42.650;23.364;2023-05-22T08:04:08;94492.97;;;22.30;51.79
11099;BME280;12223;42.650;23.364;2023-05-22T08:06:35;94497.94;;;22.50;48.68
11099;BME280;12223;42.650;23.364;2023-05-22T08:09:02;94503.34;;;21.25;48.30
11099;BME280;12223;42.650;23.364;2023-05-22T08:11:29;94513.38;;;21.20;48.24
11099;BME280;12223;42.650;23.364;2023-05-22T08:13:56;94513.72;;;21.13;49.12
11099;BME280;12223;42.650;23.364;2023-05-22T08:16:23;94498.56;;;21.22;50.60
11099;BME280;12223;42.650;23.364;2023-05-22T08:18:50;94500.28;;;21.13;50.70
11099;BME280;12223;42.650;23.364;2023-05-22T08:21:18;94500.66;;;21.25;49.86
11099;BME280;12223;42.650;23.364;2023-05-22T08:23:45;94492.97;;;21.19;47.20
11099;BME280;12223;42.650;23.364;2023-05-22T08:26:12;94499.19;;;21.14;49.07
11099;BME280;12223;42.650;23.364;2023-05-22T08:28:40;94483.88;;;21.34;49.61
11099;BME280;12223;42.650;23.364;2023-05-22T08:31:08;94490.44;;;21.60;47.99
11099;BME280;12223;42.650;23.364;2023-05-22T08:33:35;94494.06;;;21.83;48.45
11099;BME280;12223;42.650;23.364;2023-05-22T08:36:04;94495.16;;;21.68;46.57
11099;BME280;12223;42.650;23.364;2023-05-22T08:38:32;94494.41;;;21.49;45.08
11099;BME280;12223;42.650;23.364;2023-05-22T08:40:59;94497.97;;;21.25;42.75
11099;BME280;12223;42.650;23.364;2023-05-22T08:43:26;94501.97;;;21.28;44.91
11099;BME280;12223;42.650;23.364;2023-05-22T08:45:58;94502.75;;;21.47;43.58
11099;BME280;12223;42.650;23.364;2023-05-22T08:48:28;94495.44;;;20.78;44.29
11099;BME280;12223;42.650;23.364;2023-05-22T08:50:57;94488.81;;;20.89;45.99
11099;BME280;12223;42.650;23.364;2023-05-22T08:53:28;94481.81;;;21.31;46.02
11099;BME280;12223;42.650;23.364;2023-05-22T08:55:58;94476.97;;;21.92;44.57
11099;BME280;12223;42.650;23.364;2023-05-22T08:58:25;94490.94;;;22.08;43.09
11099;BME280;12223;42.650;23.364;2023-05-22T09:00:53;94489.19;;;22.17;42.93
11099;BME280;12223;42.650;23.364;2023-05-22T09:03:25;94477.31;;;22.04;40.71
11099;BME280;12223;42.650;23.364;2023-05-22T09:05:52;94487.72;;;21.92;40.35
11099;BME280;12223;42.650;23.364;2023-05-22T09:08:19;94478.09;;;22.60;39.31
11099;BME280;12223;42.650;23.364;2023-05-22T09:10:46;94484.31;;;22.96;40.12
11099;BME280;12223;42.650;23.364;2023-05-22T09:13:24;94480.47;;;22.89;36.52
11099;BME280;12223;42.650;23.364;2023-05-22T09:15:52;94487.75;;;22.47;38.61
11099;BME280;12223;42.650;23.364;2023-05-22T09:18:19;94476.00;;;22.02;38.08
11099;BME280;12223;42.650;23.364;2023-05-22T09:20:46;94480.19;;;22.49;39.00
11099;BME280;12223;42.650;23.364;2023-05-22T09:23:14;94483.59;;;22.41;37.77
11099;BME280;12223;42.650;23.364;2023-05-22T09:25:42;94469.81;;;22.56;38.22
11099;BME280;12223;42.650;23.364;2023-05-22T09:28:11;94465.56;;;23.27;37.47
11099;BME280;12223;42.650;23.364;2023-05-22T09:30:39;94471.94;;;23.31;37.71
11099;BME280;12223;42.650;23.364;2023-05-22T09:33:07;94469.03;;;23.05;35.97
11099;BME280;12223;42.650;23.364;2023-05-22T09:35:34;94462.44;;;22.48;38.76
11099;BME280;12223;42.650;23.364;2023-05-22T09:38:03;94457.13;;;22.84;38.09
11099;BME280;12223;42.650;23.364;2023-05-22T09:40:32;94466.13;;;22.66;39.36
11099;BME280;12223;42.650;23.364;2023-05-22T09:43:00;94481.28;;;22.34;37.92
11099;BME280;12223;42.650;23.364;2023-05-22T09:45:27;94472.88;;;21.95;38.03
11099;BME280;12223;42.650;23.364;2023-05-22T09:47:55;94472.44;;;22.34;38.61
11099;BME280;12223;42.650;23.364;2023-05-22T09:50:22;94480.91;;;22.27;38.30
11099;BME280;12223;42.650;23.364;2023-05-22T09:52:49;94476.41;;;22.23;38.79
11099;BME280;12223;42.650;23.364;2023-05-22T09:55:19;94489.69;;;22.19;38.33
11099;BME280;12223;42.650;23.364;2023-05-22T09:57:48;94482.38;;;22.33;38.06
11099;BME280;12223;42.650;23.364;2023-05-22T10:00:17;94477.50;;;22.22;39.08
11099;BME280;12223;42.650;23.364;2023-05-22T10:02:46;94484.78;;;22.21;38.11
11099;BME280;12223;42.650;23.364;2023-05-22T10:05:14;94487.28;;;22.31;38.80
11099;BME280;12223;42.650;23.364;2023-05-22T10:07:47;94486.84;;;22.52;38.48
11099;BME280;12223;42.650;23.364;2023-05-22T10:10:17;94480.50;;;22.75;39.01
11099;BME280;12223;42.650;23.364;2023-05-22T10:12:49;94483.97;;;22.62;38.41
11099;BME280;12223;42.650;23.364;2023-05-22T10:15:17;94479.38;;;22.62;43.17
11099;BME280;12223;42.650;23.364;2023-05-22T10:17:44;94483.19;;;22.48;45.08
11099;BME280;12223;42.650;23.364;2023-05-22T10:20:11;94475.81;;;21.98;46.78
11099;BME280;12223;42.650;23.364;2023-05-22T10:22:40;94484.28;;;21.59;49.06
11099;BME280;12223;42.650;23.364;2023-05-22T10:25:08;94483.44;;;21.08;50.55
11099;BME280;12223;42.650;23.364;2023-05-22T10:27:35;94487.91;;;20.80;52.62
11099;BME280;12223;42.650;23.364;2023-05-22T10:30:09;94494.53;;;20.64;54.94
11099;BME280;12223;42.650;23.364;2023-05-22T10:32:44;94509.59;;;20.41;61.73
11099;BME280;12223;42.650;23.364;2023-05-22T10:35:17;94518.91;;;18.35;100.00
11099;BME280;12223;42.650;23.364;2023-05-22T10:37:49;94503.00;;;16.83;100.00
11099;BME280;12223;42.650;23.364;2023-05-22T10:40:21;94377.66;;;15.60;100.00
11099;BME280;12223;42.650;23.364;2023-05-22T10:42:57;94342.00;;;15.14;100.00
11099;BME280;12223;42.650;23.364;2023-05-22T10:45:25;94288.22;;;15.07;100.00
11099;BME280;12223;42.650;23.364;2023-05-22T10:48:01;94275.19;;;15.05;100.00
11099;BME280;12223;42.650;23.364;2023-05-22T10:50:28;94264.88;;;15.19;100.00
11099;BME280;12223;42.650;23.364;2023-05-22T10:53:32;94248.50;;;15.47;100.00
11099;BME280;12223;42.650;23.364;2023-05-22T10:56:08;94223.84;;;16.07;100.00
11099;BME280;12223;42.650;23.364;2023-05-22T10:58:36;94237.41;;;16.52;100.00
11099;BME280;12223;42.650;23.364;2023-05-22T11:01:07;94334.16;;;17.03;100.00
11099;BME280;12223;42.650;23.364;2023-05-22T11:03:54;94335.09;;;17.52;100.00
11099;BME280;12223;42.650;23.364;2023-05-22T11:06:33;94398.22;;;18.07;100.00
11099;BME280;12223;42.650;23.364;2023-05-22T11:09:18;94418.03;;;18.51;100.00
11099;BME280;12223;42.650;23.364;2023-05-22T11:11:46;94443.22;;;18.88;100.00
11099;BME280;12223;42.650;23.364;2023-05-22T11:14:15;94443.94;;;18.99;100.00
11099;BME280;12223;42.650;23.364;2023-05-22T11:16:42;94455.38;;;19.05;100.00
11099;BME280;12223;42.650;23.364;2023-05-22T11:19:09;94462.38;;;19.01;100.00
11099;BME280;12223;42.650;23.364;2023-05-22T11:21:41;94476.63;;;18.96;100.00
11099;BME280;12223;42.650;23.364;2023-05-22T11:24:11;94488.81;;;18.68;100.00
11099;BME280;12223;42.650;23.364;2023-05-22T11:26:41;94499.09;;;18.36;100.00
11099;BME280;12223;42.650;23.364;2023-05-22T11:29:08;94509.91;;;18.05;100.00
11099;BME280;12223;42.650;23.364;2023-05-22T11:31:35;94536.16;;;17.48;100.00
11099;BME280;12223;42.650;23.364;2023-05-22T11:34:02;94536.41;;;17.11;100.00
11099;BME280;12223;42.650;23.364;2023-05-22T11:36:29;94530.00;;;17.12;100.00
11099;BME280;12223;42.650;23.364;2023-05-22T11:38:57;94533.47;;;17.33;100.00
11099;BME280;12223;42.650;23.364;2023-05-22T11:41:29;94540.44;;;17.39;100.00
11099;BME280;12223;42.650;23.364;2023-05-22T11:43:55;94539.09;;;17.41;100.00
11099;BME280;12223;42.650;23.364;2023-05-22T11:46:22;94542.53;;;17.52;100.00
11099;BME280;12223;42.650;23.364;2023-05-22T11:48:50;94535.34;;;17.57;100.00
11099;BME280;12223;42.650;23.364;2023-05-22T11:51:18;94518.81;;;17.50;100.00
11099;BME280;12223;42.650;23.364;2023-05-22T11:53:46;94531.88;;;17.37;100.00
11099;BME280;12223;42.650;23.364;2023-05-22T11:56:13;94531.63;;;17.48;100.00
11099;BME280;12223;42.650;23.364;2023-05-22T11:58:41;94524.41;;;17.54;100.00
11099;BME280;12223;42.650;23.364;2023-05-22T12:01:08;94525.19;;;17.54;100.00
11099;BME280;12223;42.650;23.364;2023-05-22T12:03:35;94531.91;;;17.62;100.00
11099;BME280;12223;42.650;23.364;2023-05-22T12:06:02;94537.50;;;17.60;100.00
11099;BME280;12223;42.650;23.364;2023-05-22T12:08:30;94538.31;;;17.66;100.00
11099;BME280;12223;42.650;23.364;2023-05-22T12:10:57;94538.28;;;17.71;100.00
11099;BME280;12223;42.650;23.364;2023-05-22T12:13:25;94528.16;;;17.68;100.00
11099;BME280;12223;42.650;23.364;2023-05-22T12:15:56;94528.16;;;17.63;100.00
11099;BME280;12223;42.650;23.364;2023-05-22T12:18:24;94523.34;;;17.80;100.00
11099;BME280;12223;42.650;23.364;2023-05-22T12:20:51;94516.88;;;17.96;100.00
11099;BME280;12223;42.650;23.364;2023-05-22T12:23:21;94518.97;;;18.20;100.00
11099;BME280;12223;42.650;23.364;2023-05-22T12:25:55;94520.47;;;18.46;100.00
11099;BME280;12223;42.650;23.364;2023-05-22T12:28:22;94515.34;;;18.65;100.00
11099;BME280;12223;42.650;23.364;2023-05-22T12:30:51;94510.16;;;18.83;100.00
11099;BME280;12223;42.650;23.364;2023-05-22T12:33:24;94509.44;;;19.07;100.00
11099;BME280;12223;42.650;23.364;2023-05-22T12:35:51;94503.38;;;19.30;100.00
11099;BME280;12223;42.650;23.364;2023-05-22T12:38:19;94501.91;;;19.53;100.00
11099;BME280;12223;42.650;23.364;2023-05-22T12:40:46;94500.34;;;19.76;100.00
11099;BME280;12223;42.650;23.364;2023-05-22T12:43:13;94499.91;;;19.92;100.00
11099;BME280;12223;42.650;23.364;2023-05-22T12:45:40;94481.03;;;20.02;100.00
11099;BME280;12223;42.650;23.364;2023-05-22T12:48:07;94488.63;;;20.19;100.00
11099;BME280;12223;42.650;23.364;2023-05-22T12:50:36;94493.31;;;20.32;100.00
11099;BME280;12223;42.650;23.364;2023-05-22T12:53:03;94484.06;;;20.43;100.00